createdAt,value
2023-03-12T00:00:08.388Z,1.77
2023-03-12T00:03:30.050Z,1.80
2023-03-12T00:06:31.867Z,1.83
2023-03-12T00:09:38.445Z,1.83
2023-03-12T00:12:40.315Z,1.82
2023-03-12T00:15:42.005Z,1.81
2023-03-12T00:18:46.688Z,1.79
2023-03-12T00:21:48.388Z,1.78
2023-03-12T00:24:54.342Z,1.78
2023-03-12T00:27:56.064Z,1.78
2023-03-12T00:30:58.343Z,1.79
2023-03-12T00:34:01.694Z,1.74
2023-03-12T00:37:03.464Z,1.71
2023-03-12T00:40:08.061Z,1.71
2023-03-12T00:43:10.210Z,1.72
2023-03-12T00:46:12.243Z,1.76
2023-03-12T00:49:13.929Z,1.80
2023-03-12T00:52:15.714Z,1.84
2023-03-12T00:55:17.514Z,1.88
2023-03-12T00:58:19.303Z,1.90
2023-03-12T01:01:21.050Z,1.91
2023-03-12T01:04:23.017Z,1.93
2023-03-12T01:07:24.758Z,1.94
2023-03-12T01:10:26.408Z,1.95
2023-03-12T01:13:28.148Z,1.97
2023-03-12T01:16:30.062Z,1.98
2023-03-12T01:19:31.797Z,1.98
2023-03-12T01:22:34.453Z,1.98
2023-03-12T01:25:36.494Z,1.97
2023-03-12T01:28:38.212Z,1.98
2023-03-12T01:31:39.911Z,1.97
2023-03-12T01:34:41.543Z,1.97
2023-03-12T01:37:43.208Z,1.97
2023-03-12T01:40:44.999Z,1.98
2023-03-12T01:43:46.798Z,1.97
2023-03-12T01:46:48.643Z,1.97
2023-03-12T01:49:55.574Z,1.94
2023-03-12T01:52:57.201Z,1.92
2023-03-12T01:56:01.055Z,1.89
2023-03-12T01:59:13.427Z,1.86
2023-03-12T02:02:15.916Z,1.83
2023-03-12T02:05:20.875Z,1.80
2023-03-12T02:08:24.140Z,1.78
2023-03-12T02:11:25.891Z,1.77
2023-03-12T02:14:27.912Z,1.74
2023-03-12T02:17:30.656Z,1.73
2023-03-12T02:20:56.463Z,1.73
2023-03-12T02:24:29.272Z,1.74
2023-03-12T02:27:32.179Z,1.73
2023-03-12T02:30:35.698Z,1.70
2023-03-12T02:33:37.521Z,1.69
2023-03-12T02:36:39.349Z,1.69
2023-03-12T02:39:43.998Z,1.68
2023-03-12T02:42:46.046Z,1.68
2023-03-12T02:45:48.164Z,1.67
2023-03-12T02:48:50.814Z,1.68
2023-03-12T02:51:52.987Z,1.67
2023-03-12T02:54:54.646Z,1.65
2023-03-12T02:57:56.421Z,1.64
2023-03-12T03:00:58.551Z,1.66
2023-03-12T03:04:03.559Z,1.65
2023-03-12T03:07:05.401Z,1.64
2023-03-12T03:10:08.113Z,1.63
2023-03-12T03:13:09.798Z,1.61
2023-03-12T03:16:12.845Z,1.60
2023-03-12T03:19:14.933Z,1.57
2023-03-12T03:22:17.602Z,1.54
2023-03-12T03:25:21.668Z,1.49
2023-03-12T03:28:25.918Z,1.47
2023-03-12T03:31:27.789Z,1.46
2023-03-12T03:34:29.638Z,1.45
2023-03-12T03:37:31.576Z,1.47
2023-03-12T03:40:33.514Z,1.45
2023-03-12T03:43:35.475Z,1.45
2023-03-12T03:46:37.171Z,1.45
2023-03-12T03:49:41.139Z,1.45
2023-03-12T03:52:43.122Z,1.45
2023-03-12T03:55:45.608Z,1.44
2023-03-12T03:58:47.702Z,1.46
2023-03-12T04:01:49.772Z,1.47
2023-03-12T04:04:51.820Z,1.45
2023-03-12T04:07:55.291Z,1.46
2023-03-12T04:10:58.343Z,1.43
2023-03-12T04:14:00.052Z,1.42
2023-03-12T04:17:04.505Z,1.42
2023-03-12T04:20:08.752Z,1.41
2023-03-12T04:23:11.132Z,1.41
2023-03-12T04:26:13.208Z,1.41
2023-03-12T04:29:15.492Z,1.39
2023-03-12T04:32:17.960Z,1.40
2023-03-12T04:35:19.870Z,1.37
2023-03-12T04:38:23.595Z,1.37
2023-03-12T04:41:25.571Z,1.35
2023-03-12T04:44:32.094Z,1.35
2023-03-12T04:47:34.091Z,1.32
2023-03-12T04:50:35.808Z,1.31
2023-03-12T04:53:39.848Z,1.31
2023-03-12T04:56:43.418Z,1.32
2023-03-12T04:59:45.542Z,1.34
2023-03-12T05:02:47.663Z,1.32
2023-03-12T05:05:49.643Z,1.31
2023-03-12T05:08:51.737Z,1.31
2023-03-12T05:11:53.661Z,1.30
2023-03-12T05:14:56.195Z,1.31
2023-03-12T05:17:58.098Z,1.31
2023-03-12T05:21:05.272Z,1.32
2023-03-12T05:24:08.590Z,1.34
2023-03-12T05:27:10.984Z,1.35
2023-03-12T05:30:13.510Z,1.36
2023-03-12T05:33:15.491Z,1.40
2023-03-12T05:36:17.796Z,1.41
2023-03-12T05:39:19.930Z,1.44
2023-03-12T05:42:23.631Z,1.45
2023-03-12T05:45:25.779Z,1.48
2023-03-12T05:48:28.889Z,1.50
2023-03-12T05:51:30.818Z,1.50
2023-03-12T05:54:32.880Z,1.53
2023-03-12T05:57:34.678Z,1.55
2023-03-12T06:00:37.511Z,1.55
2023-03-12T06:03:39.889Z,1.58
2023-03-12T06:06:41.759Z,1.60
2023-03-12T06:09:43.513Z,1.63
2023-03-12T06:12:46.141Z,1.66
2023-03-12T06:15:48.778Z,1.69
2023-03-12T06:19:01.360Z,1.71
2023-03-12T06:22:03.628Z,1.76
2023-03-12T06:25:05.980Z,1.81
2023-03-12T06:28:07.749Z,1.86
2023-03-12T06:31:09.629Z,1.90
2023-03-12T06:34:11.438Z,1.94
2023-03-12T06:37:13.174Z,1.96
2023-03-12T06:40:15.006Z,2.00
2023-03-12T06:43:16.748Z,2.07
2023-03-12T06:46:24.875Z,2.19
2023-03-12T06:49:31.427Z,2.21
2023-03-12T06:52:34.072Z,2.18
2023-03-12T06:55:36.041Z,2.17
2023-03-12T06:58:38.140Z,2.17
2023-03-12T07:01:39.780Z,2.19
2023-03-12T07:04:41.514Z,2.20
2023-03-12T07:07:43.344Z,2.24
2023-03-12T07:10:45.901Z,2.30
2023-03-12T07:13:47.629Z,2.40
2023-03-12T07:16:50.272Z,2.53
2023-03-12T07:19:52.165Z,2.64
2023-03-12T07:22:53.960Z,2.67
2023-03-12T07:25:55.706Z,2.73
2023-03-12T07:28:57.424Z,2.87
2023-03-12T07:31:59.205Z,3.01
2023-03-12T07:35:01.015Z,3.12
2023-03-12T07:38:03.339Z,3.23
2023-03-12T07:41:05.436Z,3.34
2023-03-12T07:44:07.484Z,3.43
2023-03-12T07:47:23.218Z,3.50
2023-03-12T07:50:25.844Z,3.56
2023-03-12T07:53:27.632Z,3.64
2023-03-12T07:56:29.378Z,3.74
2023-03-12T07:59:31.114Z,3.85
2023-03-12T08:02:33.680Z,3.96
2023-03-12T08:05:35.859Z,4.05
2023-03-12T08:08:41.107Z,4.12
2023-03-12T08:11:43.028Z,4.17
2023-03-12T08:14:46.617Z,4.20
2023-03-12T08:17:49.425Z,4.23
2023-03-12T08:20:52.369Z,4.25
2023-03-12T08:23:54.169Z,4.31
2023-03-12T08:26:56.256Z,4.36
2023-03-12T08:29:58.004Z,4.42
2023-03-12T08:32:59.787Z,4.48
2023-03-12T08:36:01.658Z,4.51
2023-03-12T08:39:03.953Z,4.54
2023-03-12T08:42:07.075Z,4.59
2023-03-12T08:45:10.801Z,4.66
2023-03-12T08:48:12.541Z,4.75
2023-03-12T08:51:16.805Z,4.83
2023-03-12T08:54:20.224Z,4.93
2023-03-12T08:57:22.002Z,5.06
2023-03-12T09:00:24.453Z,5.22
2023-03-12T09:03:26.592Z,5.30
2023-03-12T09:06:32.816Z,5.34
2023-03-12T09:09:34.776Z,5.47
2023-03-12T09:12:45.561Z,5.65
2023-03-12T09:15:47.858Z,5.82
2023-03-12T09:18:49.565Z,6.00
2023-03-12T09:21:51.351Z,6.18
2023-03-12T09:24:53.069Z,6.30
2023-03-12T09:27:54.812Z,6.31
2023-03-12T09:30:56.501Z,6.37
2023-03-12T09:33:58.255Z,6.33
2023-03-12T09:37:00.238Z,6.21
2023-03-12T09:40:06.941Z,6.12
2023-03-12T09:43:46.071Z,6.09
2023-03-12T09:46:53.007Z,6.18
2023-03-12T09:50:19.941Z,6.32
2023-03-12T09:53:34.089Z,6.49
2023-03-12T09:56:37.400Z,6.51
2023-03-12T09:59:39.978Z,6.54
2023-03-12T10:03:06.581Z,6.65
2023-03-12T10:06:24.949Z,6.78
2023-03-12T10:09:39.313Z,6.80
2023-03-12T10:13:18.764Z,6.78
2023-03-12T10:16:30.150Z,6.74
2023-03-12T10:19:50.202Z,6.80
2023-03-12T10:22:58.201Z,6.85
2023-03-12T10:26:09.664Z,6.98
2023-03-12T10:29:27.625Z,7.19
2023-03-12T10:32:38.315Z,7.43
2023-03-12T10:35:43.603Z,7.54
2023-03-12T10:38:48.829Z,7.54
2023-03-12T10:41:52.482Z,7.69
2023-03-12T10:45:00.822Z,7.93
2023-03-12T10:48:08.246Z,8.13
2023-03-12T10:51:12.406Z,8.30
2023-03-12T10:54:29.095Z,8.53
2023-03-12T10:57:41.226Z,8.81
2023-03-12T11:00:56.987Z,9.03
2023-03-12T11:04:23.376Z,8.96
2023-03-12T11:07:35.367Z,8.71
2023-03-12T11:10:47.610Z,8.45
2023-03-12T11:14:07.215Z,8.28
2023-03-12T11:17:20.746Z,8.30
2023-03-12T11:20:32.503Z,8.30
2023-03-12T11:23:36.189Z,8.38
2023-03-12T11:26:50.953Z,8.41
2023-03-12T11:29:53.819Z,8.28
2023-03-12T11:32:57.390Z,8.47
2023-03-12T11:36:17.426Z,8.64
2023-03-12T11:39:38.158Z,8.57
2023-03-12T11:42:57.899Z,8.41
2023-03-12T11:46:14.735Z,8.24
2023-03-12T11:49:40.979Z,8.37
2023-03-12T11:53:08.176Z,8.49
2023-03-12T11:56:21.190Z,8.62
2023-03-12T11:59:28.978Z,8.42
2023-03-12T12:02:55.183Z,8.36
2023-03-12T12:06:12.603Z,8.43
2023-03-12T12:09:33.274Z,8.59
2023-03-12T12:13:17.385Z,8.65
2023-03-12T12:16:29.183Z,8.39
2023-03-12T12:19:58.729Z,8.30
2023-03-12T12:23:17.021Z,8.21
2023-03-12T12:26:40.754Z,8.32
2023-03-12T12:29:52.756Z,8.53
2023-03-12T12:33:11.257Z,8.65
2023-03-12T12:36:13.881Z,8.94
2023-03-12T12:39:39.805Z,8.92
2023-03-12T12:43:03.596Z,9.00
2023-03-12T12:46:11.558Z,9.21
2023-03-12T12:49:25.400Z,9.31
2023-03-12T12:52:28.146Z,9.38
2023-03-12T12:55:41.186Z,9.35
2023-03-12T12:58:57.830Z,9.25
2023-03-12T13:02:02.368Z,9.29
2023-03-12T13:05:21.807Z,9.31
2023-03-12T13:08:38.733Z,9.19
2023-03-12T13:11:45.551Z,8.98
2023-03-12T13:14:49.116Z,8.81
2023-03-12T13:17:50.842Z,8.60
2023-03-12T13:20:52.521Z,8.40
2023-03-12T13:24:18.236Z,8.26
2023-03-12T13:27:44.652Z,8.20
2023-03-12T13:30:50.041Z,8.18
2023-03-12T13:33:55.948Z,8.12
2023-03-12T13:37:01.349Z,8.05
2023-03-12T13:40:28.751Z,7.97
2023-03-12T13:43:39.384Z,7.88
2023-03-12T13:46:43.619Z,7.84
2023-03-12T13:50:02.884Z,7.80
2023-03-12T13:53:14.453Z,7.78
2023-03-12T13:56:19.479Z,7.75
2023-03-12T13:59:24.117Z,7.72
2023-03-12T14:02:36.367Z,7.70
2023-03-12T14:06:10.403Z,7.65
2023-03-12T14:09:14.893Z,7.59
2023-03-12T14:12:52.349Z,7.55
2023-03-12T14:15:59.546Z,7.52
2023-03-12T14:19:04.505Z,7.48
2023-03-12T14:22:10.885Z,7.47
2023-03-12T14:25:14.489Z,7.48
2023-03-12T14:28:22.120Z,7.55
2023-03-12T14:31:25.311Z,7.60
2023-03-12T14:34:32.608Z,7.63
2023-03-12T14:37:43.462Z,7.66
2023-03-12T14:40:52.273Z,7.67
2023-03-12T14:43:54.295Z,7.67
2023-03-12T14:47:00.814Z,7.64
2023-03-12T14:50:03.306Z,7.59
2023-03-12T14:53:24.237Z,7.55
2023-03-12T14:56:32.695Z,7.52
2023-03-12T14:59:37.027Z,7.48
2023-03-12T15:02:39.640Z,7.44
2023-03-12T15:05:49.197Z,7.39
2023-03-12T15:08:51.054Z,7.34
2023-03-12T15:11:58.824Z,7.28
2023-03-12T15:15:06.653Z,7.23
2023-03-12T15:18:15.578Z,7.19
2023-03-12T15:21:17.472Z,7.16
2023-03-12T15:24:19.598Z,7.14
2023-03-12T15:27:24.129Z,7.10
2023-03-12T15:30:26.946Z,7.08
2023-03-12T15:33:28.652Z,7.05
2023-03-12T15:36:32.813Z,7.04
2023-03-12T15:39:37.299Z,7.02
2023-03-12T15:42:42.992Z,7.01
2023-03-12T15:45:45.426Z,6.98
2023-03-12T15:48:50.736Z,6.96
2023-03-12T15:52:06.825Z,6.92
2023-03-12T15:55:14.398Z,6.90
2023-03-12T15:58:27.886Z,6.88
2023-03-12T16:01:29.726Z,6.85
2023-03-12T16:04:31.481Z,6.82
2023-03-12T16:07:33.408Z,6.78
2023-03-12T16:10:36.386Z,6.69
2023-03-12T16:13:38.387Z,6.62
2023-03-12T16:16:40.136Z,6.59
2023-03-12T16:19:41.917Z,6.56
2023-03-12T16:22:43.946Z,6.54
2023-03-12T16:25:49.774Z,6.48
2023-03-12T16:28:51.483Z,6.45
2023-03-12T16:31:55.282Z,6.41
2023-03-12T16:34:57.111Z,6.39
2023-03-12T16:38:02.672Z,6.36
2023-03-12T16:41:04.515Z,6.35
2023-03-12T16:44:08.547Z,6.33
2023-03-12T16:47:13.533Z,6.33
2023-03-12T16:50:20.470Z,6.32
2023-03-12T16:53:22.728Z,6.29
2023-03-12T16:56:26.068Z,6.25
2023-03-12T16:59:31.127Z,6.22
2023-03-12T17:02:34.522Z,6.18
2023-03-12T17:05:36.256Z,6.15
2023-03-12T17:08:37.975Z,6.10
2023-03-12T17:11:40.299Z,6.07
2023-03-12T17:14:41.895Z,6.03
2023-03-12T17:17:43.866Z,5.99
2023-03-12T17:20:48.034Z,5.94
2023-03-12T17:23:50.447Z,5.90
2023-03-12T17:26:52.760Z,5.88
2023-03-12T17:29:54.332Z,5.88
2023-03-12T17:33:08.610Z,5.83
2023-03-12T17:36:10.842Z,5.80
2023-03-12T17:39:12.799Z,5.79
2023-03-12T17:42:15.013Z,5.78
2023-03-12T17:45:16.813Z,5.76
2023-03-12T17:48:22.778Z,5.75
2023-03-12T17:51:25.171Z,5.74
2023-03-12T17:54:26.899Z,5.73
2023-03-12T17:57:29.180Z,5.72
2023-03-12T18:00:31.060Z,5.72
2023-03-12T18:03:35.315Z,5.72
2023-03-12T18:06:38.318Z,5.71
2023-03-12T18:09:40.122Z,5.72
2023-03-12T18:12:42.028Z,5.73
2023-03-12T18:15:51.100Z,5.71
2023-03-12T18:18:53.137Z,5.68
2023-03-12T18:21:54.853Z,5.67
2023-03-12T18:24:56.547Z,5.65
2023-03-12T18:27:58.315Z,5.66
2023-03-12T18:31:00.203Z,5.65
2023-03-12T18:34:02.028Z,5.65
2023-03-12T18:37:03.807Z,5.62
2023-03-12T18:40:07.041Z,5.60
2023-03-12T18:43:08.819Z,5.61
2023-03-12T18:46:12.306Z,5.60
2023-03-12T18:49:13.999Z,5.60
2023-03-12T18:52:15.721Z,5.59
2023-03-12T18:55:17.711Z,5.58
2023-03-12T18:58:19.767Z,5.58
2023-03-12T19:01:21.784Z,5.56
2023-03-12T19:04:25.075Z,5.54
2023-03-12T19:07:26.988Z,5.51
2023-03-12T19:10:28.772Z,5.53
2023-03-12T19:13:30.607Z,5.51
2023-03-12T19:16:32.354Z,5.49
2023-03-12T19:19:34.452Z,5.48
2023-03-12T19:22:36.161Z,5.48
2023-03-12T19:25:37.951Z,5.48
2023-03-12T19:28:40.682Z,5.48
2023-03-12T19:31:42.741Z,5.48
2023-03-12T19:34:48.890Z,5.48
2023-03-12T19:37:51.950Z,5.47
2023-03-12T19:40:56.317Z,5.46
2023-03-12T19:43:58.075Z,5.47
2023-03-12T19:47:01.558Z,5.47
2023-03-12T19:50:03.601Z,5.48
2023-03-12T19:53:05.821Z,5.47
2023-03-12T19:56:07.684Z,5.47
2023-03-12T19:59:09.464Z,5.46
2023-03-12T20:02:14.941Z,5.41
2023-03-12T20:05:16.934Z,5.39
2023-03-12T20:08:20.267Z,5.38
2023-03-12T20:11:22.233Z,5.36
2023-03-12T20:14:24.402Z,5.37
2023-03-12T20:17:26.125Z,5.39
2023-03-12T20:20:28.200Z,5.39
2023-03-12T20:23:30.648Z,5.40
2023-03-12T20:26:32.372Z,5.40
2023-03-12T20:29:34.233Z,5.40
2023-03-12T20:32:36.075Z,5.40
2023-03-12T20:35:37.951Z,5.41
2023-03-12T20:38:40.352Z,5.43
2023-03-12T20:41:41.936Z,5.42
2023-03-12T20:44:43.671Z,5.42
2023-03-12T20:47:45.516Z,5.42
2023-03-12T20:50:50.507Z,5.44
2023-03-12T20:53:52.181Z,5.47
2023-03-12T20:56:53.965Z,5.48
2023-03-12T20:59:55.777Z,5.47
2023-03-12T21:02:57.614Z,5.47
2023-03-12T21:06:01.644Z,5.47
2023-03-12T21:09:03.416Z,5.48
2023-03-12T21:12:05.271Z,5.48
2023-03-12T21:15:09.188Z,5.49
2023-03-12T21:18:11.485Z,5.48
2023-03-12T21:21:13.468Z,5.50
2023-03-12T21:24:15.237Z,5.50
2023-03-12T21:27:16.922Z,5.50
2023-03-12T21:30:18.866Z,5.49
2023-03-12T21:33:21.189Z,5.50
2023-03-12T21:36:24.495Z,5.49
2023-03-12T21:39:26.538Z,5.50
2023-03-12T21:42:28.541Z,5.53
2023-03-12T21:45:30.976Z,5.54
2023-03-12T21:48:33.222Z,5.56
2023-03-12T21:51:34.861Z,5.57
2023-03-12T21:54:36.777Z,5.56
2023-03-12T21:57:38.534Z,5.56
2023-03-12T22:00:40.236Z,5.58
2023-03-12T22:03:44.064Z,5.60
2023-03-12T22:06:45.912Z,5.61
2023-03-12T22:09:47.595Z,5.62
2023-03-12T22:12:49.280Z,5.63
2023-03-12T22:15:55.946Z,5.64
2023-03-12T22:18:58.190Z,5.64
2023-03-12T22:22:00.001Z,5.63
2023-03-12T22:25:01.822Z,5.62
2023-03-12T22:28:03.747Z,5.63
2023-03-12T22:31:07.709Z,5.66
2023-03-12T22:34:09.512Z,5.69
2023-03-12T22:37:11.236Z,5.71
2023-03-12T22:40:13.355Z,5.73
2023-03-12T22:43:15.693Z,5.74
2023-03-12T22:46:18.188Z,5.76
2023-03-12T22:49:19.830Z,5.76
2023-03-12T22:52:21.526Z,5.77
2023-03-12T22:55:23.497Z,5.78
2023-03-12T22:58:25.939Z,5.80
2023-03-12T23:01:27.694Z,5.82
2023-03-12T23:04:29.491Z,5.84
2023-03-12T23:07:31.636Z,5.85
2023-03-12T23:10:33.345Z,5.87
2023-03-12T23:13:37.771Z,5.87
2023-03-12T23:16:39.528Z,5.89
2023-03-12T23:19:44.120Z,5.90
2023-03-12T23:22:45.811Z,5.92
2023-03-12T23:25:57.927Z,5.93
2023-03-12T23:29:00.358Z,5.94
2023-03-12T23:32:02.303Z,5.94
2023-03-12T23:35:04.474Z,5.96
2023-03-12T23:38:06.297Z,5.96
2023-03-12T23:41:18.253Z,5.95
2023-03-12T23:44:19.998Z,5.95
2023-03-12T23:47:21.978Z,5.95
2023-03-12T23:50:23.774Z,5.95
2023-03-12T23:53:25.489Z,5.96
2023-03-12T23:56:32.994Z,5.97
2023-03-12T23:59:34.705Z,5.99
